sensor_id;sensor_type;location;lat;lon;timestamp;P1;durP1;ratioP1;P2;durP2;ratioP2
24325;SDS011;12448;45.532;5.290;2023-01-04T00:01:54;11.82;;;8.50;;
24325;SDS011;12448;45.532;5.290;2023-01-04T00:04:20;12.00;;;7.65;;
24325;SDS011;12448;45.532;5.290;2023-01-04T00:06:46;11.38;;;7.68;;
24325;SDS011;12448;45.532;5.290;2023-01-04T00:09:11;11.05;;;7.63;;
24325;SDS011;12448;45.532;5.290;2023-01-04T00:11:37;11.82;;;7.65;;
24325;SDS011;12448;45.532;5.290;2023-01-04T00:14:02;11.95;;;7.45;;
24325;SDS011;12448;45.532;5.290;2023-01-04T00:16:28;42.10;;;19.33;;
24325;SDS011;12448;45.532;5.290;2023-01-04T00:18:54;27.98;;;13.93;;
24325;SDS011;12448;45.532;5.290;2023-01-04T00:21:24;28.27;;;16.02;;
24325;SDS011;12448;45.532;5.290;2023-01-04T00:23:52;47.03;;;23.33;;
24325;SDS011;12448;45.532;5.290;2023-01-04T00:26:23;44.58;;;22.00;;
24325;SDS011;12448;45.532;5.290;2023-01-04T00:28:54;42.70;;;22.48;;
24325;SDS011;12448;45.532;5.290;2023-01-04T00:31:21;56.65;;;30.15;;
24325;SDS011;12448;45.532;5.290;2023-01-04T00:33:48;40.60;;;21.80;;
24325;SDS011;12448;45.532;5.290;2023-01-04T00:36:14;28.67;;;16.77;;
24325;SDS011;12448;45.532;5.290;2023-01-04T00:38:40;23.02;;;14.50;;
24325;SDS011;12448;45.532;5.290;2023-01-04T00:41:06;15.80;;;10.48;;
24325;SDS011;12448;45.532;5.290;2023-01-04T00:43:33;15.90;;;11.02;;
24325;SDS011;12448;45.532;5.290;2023-01-04T00:45:59;19.88;;;10.45;;
24325;SDS011;12448;45.532;5.290;2023-01-04T00:48:28;13.38;;;9.90;;
24325;SDS011;12448;45.532;5.290;2023-01-04T00:50:54;14.35;;;9.07;;
24325;SDS011;12448;45.532;5.290;2023-01-04T00:53:20;16.35;;;8.95;;
24325;SDS011;12448;45.532;5.290;2023-01-04T00:55:46;13.02;;;9.60;;
24325;SDS011;12448;45.532;5.290;2023-01-04T00:58:12;11.63;;;7.95;;
24325;SDS011;12448;45.532;5.290;2023-01-04T01:00:38;12.93;;;7.88;;
24325;SDS011;12448;45.532;5.290;2023-01-04T01:03:04;12.15;;;7.65;;
24325;SDS011;12448;45.532;5.290;2023-01-04T01:05:32;12.85;;;8.20;;
24325;SDS011;12448;45.532;5.290;2023-01-04T01:07:59;14.40;;;10.05;;
24325;SDS011;12448;45.532;5.290;2023-01-04T01:10:45;18.20;;;12.07;;
24325;SDS011;12448;45.532;5.290;2023-01-04T01:13:10;21.58;;;12.27;;
24325;SDS011;12448;45.532;5.290;2023-01-04T01:15:36;16.23;;;10.98;;
24325;SDS011;12448;45.532;5.290;2023-01-04T01:18:03;15.65;;;9.95;;
24325;SDS011;12448;45.532;5.290;2023-01-04T01:20:28;16.63;;;10.30;;
24325;SDS011;12448;45.532;5.290;2023-01-04T01:22:54;17.67;;;10.52;;
24325;SDS011;12448;45.532;5.290;2023-01-04T01:25:20;15.82;;;10.85;;
24325;SDS011;12448;45.532;5.290;2023-01-04T01:27:45;16.20;;;10.57;;
24325;SDS011;12448;45.532;5.290;2023-01-04T01:30:11;14.40;;;10.35;;
24325;SDS011;12448;45.532;5.290;2023-01-04T01:32:36;13.65;;;9.13;;
24325;SDS011;12448;45.532;5.290;2023-01-04T01:35:02;11.88;;;9.05;;
24325;SDS011;12448;45.532;5.290;2023-01-04T01:37:28;14.48;;;9.77;;
24325;SDS011;12448;45.532;5.290;2023-01-04T01:39:54;11.40;;;8.60;;
24325;SDS011;12448;45.532;5.290;2023-01-04T01:42:19;13.68;;;9.18;;
24325;SDS011;12448;45.532;5.290;2023-01-04T01:44:54;11.35;;;8.50;;
24325;SDS011;12448;45.532;5.290;2023-01-04T01:47:36;13.13;;;8.38;;
24325;SDS011;12448;45.532;5.290;2023-01-04T01:50:15;7.53;;;5.20;;
24325;SDS011;12448;45.532;5.290;2023-01-04T01:52:45;42.15;;;5.32;;
24325;SDS011;12448;45.532;5.290;2023-01-04T01:55:11;203.13;;;6.57;;
24325;SDS011;12448;45.532;5.290;2023-01-04T01:57:37;25.98;;;5.55;;
24325;SDS011;12448;45.532;5.290;2023-01-04T02:00:08;26.83;;;5.75;;
24325;SDS011;12448;45.532;5.290;2023-01-04T02:02:39;15.02;;;5.22;;
24325;SDS011;12448;45.532;5.290;2023-01-04T02:05:16;8.13;;;6.25;;
24325;SDS011;12448;45.532;5.290;2023-01-04T02:07:43;7.63;;;5.88;;
24325;SDS011;12448;45.532;5.290;2023-01-04T02:10:09;6.90;;;5.68;;
24325;SDS011;12448;45.532;5.290;2023-01-04T02:12:36;6.65;;;5.90;;
24325;SDS011;12448;45.532;5.290;2023-01-04T02:15:02;8.02;;;6.50;;
24325;SDS011;12448;45.532;5.290;2023-01-04T02:17:35;10.18;;;7.53;;
24325;SDS011;12448;45.532;5.290;2023-01-04T02:31:38;10.55;;;7.43;;
24325;SDS011;12448;45.532;5.290;2023-01-04T02:43:04;96.82;;;39.10;;
24325;SDS011;12448;45.532;5.290;2023-01-04T02:46:06;36.13;;;17.08;;
24325;SDS011;12448;45.532;5.290;2023-01-04T02:48:38;21.13;;;13.82;;
24325;SDS011;12448;45.532;5.290;2023-01-04T02:54:29;101.28;;;42.28;;
24325;SDS011;12448;45.532;5.290;2023-01-04T03:08:35;12.27;;;9.15;;
24325;SDS011;12448;45.532;5.290;2023-01-04T03:11:16;34.35;;;10.40;;
24325;SDS011;12448;45.532;5.290;2023-01-04T03:14:19;44.17;;;11.38;;
24325;SDS011;12448;45.532;5.290;2023-01-04T03:16:51;94.43;;;11.70;;
24325;SDS011;12448;45.532;5.290;2023-01-04T03:19:19;182.30;;;12.82;;
24325;SDS011;12448;45.532;5.290;2023-01-04T03:22:12;132.48;;;11.02;;
24325;SDS011;12448;45.532;5.290;2023-01-04T03:24:59;97.40;;;13.70;;
24325;SDS011;12448;45.532;5.290;2023-01-04T03:27:45;172.02;;;13.60;;
24325;SDS011;12448;45.532;5.290;2023-01-04T03:30:33;109.38;;;11.77;;
24325;SDS011;12448;45.532;5.290;2023-01-04T03:33:25;191.68;;;13.82;;
24325;SDS011;12448;45.532;5.290;2023-01-04T03:42:55;141.85;;;11.50;;
24325;SDS011;12448;45.532;5.290;2023-01-04T03:45:49;238.27;;;13.05;;
24325;SDS011;12448;45.532;5.290;2023-01-04T03:48:39;308.02;;;13.13;;
24325;SDS011;12448;45.532;5.290;2023-01-04T03:51:32;212.43;;;11.95;;
24325;SDS011;12448;45.532;5.290;2023-01-04T03:54:02;150.20;;;10.48;;
24325;SDS011;12448;45.532;5.290;2023-01-04T03:56:47;87.18;;;7.50;;
24325;SDS011;12448;45.532;5.290;2023-01-04T04:01:42;43.28;;;6.72;;
24325;SDS011;12448;45.532;5.290;2023-01-04T04:04:12;38.65;;;6.65;;
24325;SDS011;12448;45.532;5.290;2023-01-04T04:06:56;40.47;;;5.93;;
24325;SDS011;12448;45.532;5.290;2023-01-04T04:09:40;117.25;;;7.35;;
24325;SDS011;12448;45.532;5.290;2023-01-04T04:12:26;109.00;;;8.48;;
24325;SDS011;12448;45.532;5.290;2023-01-04T04:15:13;196.55;;;10.07;;
24325;SDS011;12448;45.532;5.290;2023-01-04T04:17:38;125.78;;;8.32;;
24325;SDS011;12448;45.532;5.290;2023-01-04T04:20:04;169.23;;;9.27;;
24325;SDS011;12448;45.532;5.290;2023-01-04T04:22:31;161.93;;;7.80;;
24325;SDS011;12448;45.532;5.290;2023-01-04T04:24:57;73.55;;;6.35;;
24325;SDS011;12448;45.532;5.290;2023-01-04T04:27:44;82.97;;;5.88;;
24325;SDS011;12448;45.532;5.290;2023-01-04T04:30:16;187.13;;;8.38;;
24325;SDS011;12448;45.532;5.290;2023-01-04T04:32:41;131.15;;;6.65;;
24325;SDS011;12448;45.532;5.290;2023-01-04T04:35:10;101.82;;;6.63;;
24325;SDS011;12448;45.532;5.290;2023-01-04T04:37:49;71.05;;;5.57;;
24325;SDS011;12448;45.532;5.290;2023-01-04T04:40:23;59.28;;;5.80;;
24325;SDS011;12448;45.532;5.290;2023-01-04T04:43:13;69.00;;;5.78;;
24325;SDS011;12448;45.532;5.290;2023-01-04T04:46:03;98.60;;;6.90;;
24325;SDS011;12448;45.532;5.290;2023-01-04T04:48:29;61.97;;;6.20;;
24325;SDS011;12448;45.532;5.290;2023-01-04T04:50:54;58.40;;;6.90;;
24325;SDS011;12448;45.532;5.290;2023-01-04T04:53:20;84.97;;;6.95;;
24325;SDS011;12448;45.532;5.290;2023-01-04T04:55:49;90.85;;;6.35;;
24325;SDS011;12448;45.532;5.290;2023-01-04T04:58:24;33.63;;;5.97;;
24325;SDS011;12448;45.532;5.290;2023-01-04T05:00:50;67.55;;;6.53;;
24325;SDS011;12448;45.532;5.290;2023-01-04T05:05:59;86.40;;;6.25;;
24325;SDS011;12448;45.532;5.290;2023-01-04T05:08:34;24.73;;;6.47;;
24325;SDS011;12448;45.532;5.290;2023-01-04T05:11:03;17.40;;;6.03;;
24325;SDS011;12448;45.532;5.290;2023-01-04T05:13:34;18.60;;;5.68;;
24325;SDS011;12448;45.532;5.290;2023-01-04T05:16:04;86.47;;;6.88;;
24325;SDS011;12448;45.532;5.290;2023-01-04T05:18:31;28.92;;;6.78;;
24325;SDS011;12448;45.532;5.290;2023-01-04T05:21:00;32.20;;;6.38;;
24325;SDS011;12448;45.532;5.290;2023-01-04T05:23:36;49.28;;;7.00;;
24325;SDS011;12448;45.532;5.290;2023-01-04T05:26:02;46.75;;;6.47;;
24325;SDS011;12448;45.532;5.290;2023-01-04T05:28:28;103.45;;;9.02;;
24325;SDS011;12448;45.532;5.290;2023-01-04T05:30:59;75.88;;;9.18;;
24325;SDS011;12448;45.532;5.290;2023-01-04T05:33:29;54.88;;;8.77;;
24325;SDS011;12448;45.532;5.290;2023-01-04T05:35:57;29.95;;;6.80;;
24325;SDS011;12448;45.532;5.290;2023-01-04T05:38:32;19.77;;;6.95;;
24325;SDS011;12448;45.532;5.290;2023-01-04T05:40:59;33.45;;;8.23;;
24325;SDS011;12448;45.532;5.290;2023-01-04T05:43:25;118.15;;;16.70;;
24325;SDS011;12448;45.532;5.290;2023-01-04T05:45:52;70.63;;;17.80;;
24325;SDS011;12448;45.532;5.290;2023-01-04T05:48:21;122.20;;;17.30;;
24325;SDS011;12448;45.532;5.290;2023-01-04T05:51:00;79.28;;;15.35;;
24325;SDS011;12448;45.532;5.290;2023-01-04T05:53:26;26.48;;;9.65;;
24325;SDS011;12448;45.532;5.290;2023-01-04T05:56:01;61.00;;;8.52;;
24325;SDS011;12448;45.532;5.290;2023-01-04T05:58:34;42.92;;;9.43;;
24325;SDS011;12448;45.532;5.290;2023-01-04T06:03:33;69.28;;;7.35;;
24325;SDS011;12448;45.532;5.290;2023-01-04T06:05:58;122.65;;;7.97;;
24325;SDS011;12448;45.532;5.290;2023-01-04T06:08:24;76.57;;;7.22;;
24325;SDS011;12448;45.532;5.290;2023-01-04T06:10:53;46.95;;;7.55;;
24325;SDS011;12448;45.532;5.290;2023-01-04T06:13:22;26.42;;;6.78;;
24325;SDS011;12448;45.532;5.290;2023-01-04T06:15:47;31.40;;;7.50;;
24325;SDS011;12448;45.532;5.290;2023-01-04T06:18:13;23.38;;;8.77;;
24325;SDS011;12448;45.532;5.290;2023-01-04T06:20:39;35.22;;;9.40;;
24325;SDS011;12448;45.532;5.290;2023-01-04T06:23:07;38.22;;;9.18;;
24325;SDS011;12448;45.532;5.290;2023-01-04T06:25:36;37.58;;;10.52;;
24325;SDS011;12448;45.532;5.290;2023-01-04T06:28:07;87.13;;;12.30;;
24325;SDS011;12448;45.532;5.290;2023-01-04T06:30:36;48.53;;;11.10;;
24325;SDS011;12448;45.532;5.290;2023-01-04T06:33:23;87.10;;;19.23;;
24325;SDS011;12448;45.532;5.290;2023-01-04T06:35:57;174.25;;;40.63;;
24325;SDS011;12448;45.532;5.290;2023-01-04T06:38:34;258.45;;;54.83;;
24325;SDS011;12448;45.532;5.290;2023-01-04T06:41:00;180.70;;;48.75;;
24325;SDS011;12448;45.532;5.290;2023-01-04T06:43:35;180.23;;;43.47;;
24325;SDS011;12448;45.532;5.290;2023-01-04T06:46:21;161.95;;;54.42;;
24325;SDS011;12448;45.532;5.290;2023-01-04T06:49:08;179.40;;;63.55;;
24325;SDS011;12448;45.532;5.290;2023-01-04T06:51:38;133.80;;;52.55;;
24325;SDS011;12448;45.532;5.290;2023-01-04T06:54:04;144.27;;;51.60;;
24325;SDS011;12448;45.532;5.290;2023-01-04T06:56:35;152.95;;;33.05;;
24325;SDS011;12448;45.532;5.290;2023-01-04T06:59:05;198.15;;;16.83;;
24325;SDS011;12448;45.532;5.290;2023-01-04T07:01:31;176.93;;;22.35;;
24325;SDS011;12448;45.532;5.290;2023-01-04T07:04:00;215.13;;;23.73;;
24325;SDS011;12448;45.532;5.290;2023-01-04T07:06:28;223.18;;;47.85;;
24325;SDS011;12448;45.532;5.290;2023-01-04T07:08:57;167.35;;;59.35;;
24325;SDS011;12448;45.532;5.290;2023-01-04T07:11:23;148.18;;;30.38;;
24325;SDS011;12448;45.532;5.290;2023-01-04T07:13:49;205.15;;;43.38;;
24325;SDS011;12448;45.532;5.290;2023-01-04T07:16:19;166.93;;;34.63;;
24325;SDS011;12448;45.532;5.290;2023-01-04T07:18:45;147.13;;;39.50;;
24325;SDS011;12448;45.532;5.290;2023-01-04T07:21:13;226.60;;;22.98;;
24325;SDS011;12448;45.532;5.290;2023-01-04T07:23:39;103.57;;;16.13;;
24325;SDS011;12448;45.532;5.290;2023-01-04T07:26:05;220.68;;;53.33;;
24325;SDS011;12448;45.532;5.290;2023-01-04T07:28:31;119.85;;;26.20;;
24325;SDS011;12448;45.532;5.290;2023-01-04T07:31:15;205.88;;;31.20;;
24325;SDS011;12448;45.532;5.290;2023-01-04T07:33:41;203.30;;;15.40;;
24325;SDS011;12448;45.532;5.290;2023-01-04T07:36:10;156.43;;;13.43;;
24325;SDS011;12448;45.532;5.290;2023-01-04T07:38:35;111.30;;;11.07;;
24325;SDS011;12448;45.532;5.290;2023-01-04T07:41:01;117.05;;;11.13;;
24325;SDS011;12448;45.532;5.290;2023-01-04T07:43:27;378.15;;;12.90;;
24325;SDS011;12448;45.532;5.290;2023-01-04T07:45:53;252.88;;;11.73;;
24325;SDS011;12448;45.532;5.290;2023-01-04T07:48:18;181.85;;;11.50;;
24325;SDS011;12448;45.532;5.290;2023-01-04T07:50:47;162.95;;;11.48;;
24325;SDS011;12448;45.532;5.290;2023-01-04T07:53:14;120.07;;;10.73;;
24325;SDS011;12448;45.532;5.290;2023-01-04T07:55:39;222.70;;;11.57;;
24325;SDS011;12448;45.532;5.290;2023-01-04T07:58:05;282.50;;;11.65;;
24325;SDS011;12448;45.532;5.290;2023-01-04T08:00:31;141.07;;;9.65;;
24325;SDS011;12448;45.532;5.290;2023-01-04T08:02:57;119.85;;;8.95;;
24325;SDS011;12448;45.532;5.290;2023-01-04T08:05:23;133.23;;;9.68;;
24325;SDS011;12448;45.532;5.290;2023-01-04T08:07:49;91.55;;;9.35;;
24325;SDS011;12448;45.532;5.290;2023-01-04T08:10:15;240.18;;;10.00;;
24325;SDS011;12448;45.532;5.290;2023-01-04T08:12:41;100.10;;;8.13;;
24325;SDS011;12448;45.532;5.290;2023-01-04T08:15:07;86.90;;;7.53;;
24325;SDS011;12448;45.532;5.290;2023-01-04T08:17:38;117.18;;;7.53;;
24325;SDS011;12448;45.532;5.290;2023-01-04T08:20:05;99.38;;;7.55;;
24325;SDS011;12448;45.532;5.290;2023-01-04T08:22:36;124.38;;;7.88;;
24325;SDS011;12448;45.532;5.290;2023-01-04T08:25:04;145.48;;;8.27;;
24325;SDS011;12448;45.532;5.290;2023-01-04T08:27:32;85.90;;;7.70;;
24325;SDS011;12448;45.532;5.290;2023-01-04T08:29:58;71.68;;;7.47;;
24325;SDS011;12448;45.532;5.290;2023-01-04T08:32:24;97.45;;;7.15;;
24325;SDS011;12448;45.532;5.290;2023-01-04T08:34:50;116.20;;;8.27;;
24325;SDS011;12448;45.532;5.290;2023-01-04T08:37:17;152.05;;;8.48;;
24325;SDS011;12448;45.532;5.290;2023-01-04T08:39:43;106.55;;;7.65;;
24325;SDS011;12448;45.532;5.290;2023-01-04T08:42:08;73.20;;;8.05;;
24325;SDS011;12448;45.532;5.290;2023-01-04T08:44:34;114.85;;;8.60;;
24325;SDS011;12448;45.532;5.290;2023-01-04T08:47:00;98.65;;;8.85;;
24325;SDS011;12448;45.532;5.290;2023-01-04T08:49:26;63.53;;;8.52;;
24325;SDS011;12448;45.532;5.290;2023-01-04T08:51:52;168.73;;;11.68;;
24325;SDS011;12448;45.532;5.290;2023-01-04T08:54:18;94.88;;;12.57;;
24325;SDS011;12448;45.532;5.290;2023-01-04T08:56:43;160.57;;;13.25;;
24325;SDS011;12448;45.532;5.290;2023-01-04T08:59:09;121.55;;;13.95;;
24325;SDS011;12448;45.532;5.290;2023-01-04T09:01:36;40.10;;;9.38;;
24325;SDS011;12448;45.532;5.290;2023-01-04T09:04:03;49.95;;;9.50;;
24325;SDS011;12448;45.532;5.290;2023-01-04T09:06:28;314.48;;;11.48;;
24325;SDS011;12448;45.532;5.290;2023-01-04T09:08:55;177.82;;;11.10;;
24325;SDS011;12448;45.532;5.290;2023-01-04T09:11:21;60.55;;;9.80;;
24325;SDS011;12448;45.532;5.290;2023-01-04T09:13:47;107.38;;;10.02;;
24325;SDS011;12448;45.532;5.290;2023-01-04T09:16:17;14.55;;;9.45;;
24325;SDS011;12448;45.532;5.290;2023-01-04T09:18:44;18.60;;;9.73;;
24325;SDS011;12448;45.532;5.290;2023-01-04T09:21:11;19.23;;;10.27;;
24325;SDS011;12448;45.532;5.290;2023-01-04T09:23:39;20.27;;;10.57;;
24325;SDS011;12448;45.532;5.290;2023-01-04T09:26:13;17.40;;;10.00;;
24325;SDS011;12448;45.532;5.290;2023-01-04T09:28:40;13.23;;;8.60;;
24325;SDS011;12448;45.532;5.290;2023-01-04T09:31:17;13.75;;;8.55;;
24325;SDS011;12448;45.532;5.290;2023-01-04T09:33:45;13.63;;;8.65;;
24325;SDS011;12448;45.532;5.290;2023-01-04T09:36:14;14.13;;;9.15;;
24325;SDS011;12448;45.532;5.290;2023-01-04T09:38:41;14.15;;;8.75;;
24325;SDS011;12448;45.532;5.290;2023-01-04T09:46:58;12.93;;;8.88;;
24325;SDS011;12448;45.532;5.290;2023-01-04T09:51:54;13.95;;;8.73;;
24325;SDS011;12448;45.532;5.290;2023-01-04T09:54:22;15.05;;;9.77;;
24325;SDS011;12448;45.532;5.290;2023-01-04T09:56:52;13.68;;;8.77;;
24325;SDS011;12448;45.532;5.290;2023-01-04T09:59:23;15.93;;;9.98;;
24325;SDS011;12448;45.532;5.290;2023-01-04T10:07:17;48.72;;;23.77;;
24325;SDS011;12448;45.532;5.290;2023-01-04T10:09:52;33.47;;;24.10;;
24325;SDS011;12448;45.532;5.290;2023-01-04T10:12:25;24.13;;;15.30;;
24325;SDS011;12448;45.532;5.290;2023-01-04T10:18:29;35.30;;;21.25;;
24325;SDS011;12448;45.532;5.290;2023-01-04T10:26:23;168.80;;;23.55;;
24325;SDS011;12448;45.532;5.290;2023-01-04T10:28:58;154.05;;;20.15;;
24325;SDS011;12448;45.532;5.290;2023-01-04T10:32:14;27.13;;;16.67;;
24325;SDS011;12448;45.532;5.290;2023-01-04T10:34:44;30.80;;;14.32;;
24325;SDS011;12448;45.532;5.290;2023-01-04T10:37:18;24.67;;;13.18;;
24325;SDS011;12448;45.532;5.290;2023-01-04T10:39:56;19.40;;;12.50;;
24325;SDS011;12448;45.532;5.290;2023-01-04T10:51:08;45.45;;;17.38;;
24325;SDS011;12448;45.532;5.290;2023-01-04T10:55:52;225.95;;;16.88;;
24325;SDS011;12448;45.532;5.290;2023-01-04T10:58:22;33.95;;;15.13;;
24325;SDS011;12448;45.532;5.290;2023-01-04T11:01:04;78.53;;;15.57;;
24325;SDS011;12448;45.532;5.290;2023-01-04T11:03:40;26.75;;;15.23;;
24325;SDS011;12448;45.532;5.290;2023-01-04T11:06:37;29.17;;;15.88;;
24325;SDS011;12448;45.532;5.290;2023-01-04T11:09:21;24.23;;;15.77;;
24325;SDS011;12448;45.532;5.290;2023-01-04T11:11:50;25.10;;;16.13;;
24325;SDS011;12448;45.532;5.290;2023-01-04T11:14:19;24.50;;;15.77;;
24325;SDS011;12448;45.532;5.290;2023-01-04T11:16:48;22.40;;;15.10;;
24325;SDS011;12448;45.532;5.290;2023-01-04T11:19:16;28.67;;;17.35;;
24325;SDS011;12448;45.532;5.290;2023-01-04T11:27:15;22.50;;;14.75;;
24325;SDS011;12448;45.532;5.290;2023-01-04T11:30:00;23.67;;;15.77;;
24325;SDS011;12448;45.532;5.290;2023-01-04T11:32:38;20.90;;;14.35;;
24325;SDS011;12448;45.532;5.290;2023-01-04T11:35:10;20.47;;;13.83;;
24325;SDS011;12448;45.532;5.290;2023-01-04T11:37:37;24.58;;;16.70;;
24325;SDS011;12448;45.532;5.290;2023-01-04T11:40:11;19.83;;;14.25;;
24325;SDS011;12448;45.532;5.290;2023-01-04T11:42:43;20.88;;;13.45;;
24325;SDS011;12448;45.532;5.290;2023-01-04T11:45:26;18.25;;;13.10;;
24325;SDS011;12448;45.532;5.290;2023-01-04T11:47:53;18.53;;;13.30;;
24325;SDS011;12448;45.532;5.290;2023-01-04T11:50:32;18.90;;;12.68;;
24325;SDS011;12448;45.532;5.290;2023-01-04T11:52:58;16.10;;;10.88;;
24325;SDS011;12448;45.532;5.290;2023-01-04T11:55:25;12.93;;;8.55;;
24325;SDS011;12448;45.532;5.290;2023-01-04T12:00:30;15.23;;;10.02;;
24325;SDS011;12448;45.532;5.290;2023-01-04T12:03:16;15.70;;;10.00;;
24325;SDS011;12448;45.532;5.290;2023-01-04T12:05:45;16.15;;;10.23;;
24325;SDS011;12448;45.532;5.290;2023-01-04T12:08:44;15.55;;;10.35;;
24325;SDS011;12448;45.532;5.290;2023-01-04T12:11:03;29.75;;;16.70;;
24325;SDS011;12448;45.532;5.290;2023-01-04T12:13:30;27.35;;;16.13;;
24325;SDS011;12448;45.532;5.290;2023-01-04T12:16:03;30.23;;;17.60;;
24325;SDS011;12448;45.532;5.290;2023-01-04T12:18:37;20.88;;;13.25;;
24325;SDS011;12448;45.532;5.290;2023-01-04T12:21:05;411.48;;;228.20;;
24325;SDS011;12448;45.532;5.290;2023-01-04T12:23:42;111.63;;;72.20;;
24325;SDS011;12448;45.532;5.290;2023-01-04T12:26:09;33.90;;;22.98;;
24325;SDS011;12448;45.532;5.290;2023-01-04T12:28:37;40.28;;;26.80;;
24325;SDS011;12448;45.532;5.290;2023-01-04T12:33:43;46.13;;;26.23;;
24325;SDS011;12448;45.532;5.290;2023-01-04T12:36:10;39.58;;;25.95;;
24325;SDS011;12448;45.532;5.290;2023-01-04T12:41:22;28.75;;;18.95;;
24325;SDS011;12448;45.532;5.290;2023-01-04T12:54:55;117.90;;;44.10;;
24325;SDS011;12448;45.532;5.290;2023-01-04T13:00:05;169.82;;;65.57;;
24325;SDS011;12448;45.532;5.290;2023-01-04T13:02:33;85.60;;;37.97;;
24325;SDS011;12448;45.532;5.290;2023-01-04T13:07:41;30.73;;;17.73;;
24325;SDS011;12448;45.532;5.290;2023-01-04T13:18:55;69.38;;;36.38;;
24325;SDS011;12448;45.532;5.290;2023-01-04T13:21:38;80.40;;;40.67;;
24325;SDS011;12448;45.532;5.290;2023-01-04T13:24:19;54.50;;;23.17;;
24325;SDS011;12448;45.532;5.290;2023-01-04T13:26:46;63.53;;;30.77;;
24325;SDS011;12448;45.532;5.290;2023-01-04T13:29:30;105.05;;;50.03;;
24325;SDS011;12448;45.532;5.290;2023-01-04T13:32:04;80.70;;;37.65;;
24325;SDS011;12448;45.532;5.290;2023-01-04T13:40:01;30.48;;;19.48;;
24325;SDS011;12448;45.532;5.290;2023-01-04T13:42:43;84.75;;;40.50;;
24325;SDS011;12448;45.532;5.290;2023-01-04T13:47:59;53.20;;;26.67;;
24325;SDS011;12448;45.532;5.290;2023-01-04T13:50:41;25.58;;;15.50;;
24325;SDS011;12448;45.532;5.290;2023-01-04T13:53:23;25.20;;;16.25;;
24325;SDS011;12448;45.532;5.290;2023-01-04T13:55:51;28.75;;;18.88;;
24325;SDS011;12448;45.532;5.290;2023-01-04T13:58:22;26.05;;;16.95;;
24325;SDS011;12448;45.532;5.290;2023-01-04T14:03:50;33.90;;;21.42;;
24325;SDS011;12448;45.532;5.290;2023-01-04T14:06:23;32.17;;;21.08;;
24325;SDS011;12448;45.532;5.290;2023-01-04T14:16:47;39.33;;;23.80;;
24325;SDS011;12448;45.532;5.290;2023-01-04T14:24:53;33.22;;;19.63;;
24325;SDS011;12448;45.532;5.290;2023-01-04T14:27:34;33.80;;;19.42;;
24325;SDS011;12448;45.532;5.290;2023-01-04T14:32:59;30.70;;;20.17;;
24325;SDS011;12448;45.532;5.290;2023-01-04T14:35:37;35.17;;;21.67;;
24325;SDS011;12448;45.532;5.290;2023-01-04T14:38:04;41.55;;;22.70;;
24325;SDS011;12448;45.532;5.290;2023-01-04T14:40:35;112.65;;;53.75;;
24325;SDS011;12448;45.532;5.290;2023-01-04T14:43:02;61.20;;;30.75;;
24325;SDS011;12448;45.532;5.290;2023-01-04T14:45:47;41.22;;;27.35;;
24325;SDS011;12448;45.532;5.290;2023-01-04T14:48:13;35.85;;;22.63;;
24325;SDS011;12448;45.532;5.290;2023-01-04T14:50:39;46.35;;;26.00;;
24325;SDS011;12448;45.532;5.290;2023-01-04T14:53:04;43.85;;;29.20;;
24325;SDS011;12448;45.532;5.290;2023-01-04T14:55:30;37.72;;;25.10;;
24325;SDS011;12448;45.532;5.290;2023-01-04T14:57:55;34.40;;;20.92;;
24325;SDS011;12448;45.532;5.290;2023-01-04T15:00:21;30.67;;;19.67;;
24325;SDS011;12448;45.532;5.290;2023-01-04T15:02:47;29.63;;;18.45;;
24325;SDS011;12448;45.532;5.290;2023-01-04T15:05:15;38.40;;;18.95;;
24325;SDS011;12448;45.532;5.290;2023-01-04T15:07:43;28.83;;;18.42;;
24325;SDS011;12448;45.532;5.290;2023-01-04T15:10:30;25.33;;;16.83;;
24325;SDS011;12448;45.532;5.290;2023-01-04T15:12:55;29.30;;;17.88;;
24325;SDS011;12448;45.532;5.290;2023-01-04T15:15:24;28.70;;;18.15;;
24325;SDS011;12448;45.532;5.290;2023-01-04T15:17:50;29.98;;;18.17;;
24325;SDS011;12448;45.532;5.290;2023-01-04T15:20:15;30.27;;;18.92;;
24325;SDS011;12448;45.532;5.290;2023-01-04T15:22:41;26.90;;;16.70;;
24325;SDS011;12448;45.532;5.290;2023-01-04T15:25:08;28.75;;;17.67;;
24325;SDS011;12448;45.532;5.290;2023-01-04T15:27:34;44.15;;;28.50;;
24325;SDS011;12448;45.532;5.290;2023-01-04T15:29:59;33.22;;;21.45;;
24325;SDS011;12448;45.532;5.290;2023-01-04T15:32:25;26.90;;;17.75;;
24325;SDS011;12448;45.532;5.290;2023-01-04T15:34:51;30.15;;;19.50;;
24325;SDS011;12448;45.532;5.290;2023-01-04T15:37:16;32.40;;;19.02;;
24325;SDS011;12448;45.532;5.290;2023-01-04T15:39:44;32.35;;;19.20;;
24325;SDS011;12448;45.532;5.290;2023-01-04T15:42:10;33.63;;;18.83;;
24325;SDS011;12448;45.532;5.290;2023-01-04T15:44:55;31.52;;;19.88;;
24325;SDS011;12448;45.532;5.290;2023-01-04T15:47:21;36.08;;;20.58;;
24325;SDS011;12448;45.532;5.290;2023-01-04T15:49:47;37.25;;;22.42;;
24325;SDS011;12448;45.532;5.290;2023-01-04T15:52:12;34.67;;;21.42;;
24325;SDS011;12448;45.532;5.290;2023-01-04T15:54:38;34.80;;;22.00;;
24325;SDS011;12448;45.532;5.290;2023-01-04T15:57:04;35.58;;;21.75;;
24325;SDS011;12448;45.532;5.290;2023-01-04T15:59:29;33.50;;;20.98;;
24325;SDS011;12448;45.532;5.290;2023-01-04T16:01:56;52.95;;;30.48;;
24325;SDS011;12448;45.532;5.290;2023-01-04T16:04:22;40.28;;;22.25;;
24325;SDS011;12448;45.532;5.290;2023-01-04T16:06:47;34.28;;;21.65;;
24325;SDS011;12448;45.532;5.290;2023-01-04T16:09:13;41.05;;;25.33;;
24325;SDS011;12448;45.532;5.290;2023-01-04T16:11:39;39.63;;;25.13;;
24325;SDS011;12448;45.532;5.290;2023-01-04T16:14:23;39.33;;;24.52;;
24325;SDS011;12448;45.532;5.290;2023-01-04T16:16:48;107.38;;;42.10;;
24325;SDS011;12448;45.532;5.290;2023-01-04T16:19:14;53.85;;;27.60;;
24325;SDS011;12448;45.532;5.290;2023-01-04T16:21:40;37.55;;;22.30;;
24325;SDS011;12448;45.532;5.290;2023-01-04T16:24:07;36.30;;;21.58;;
24325;SDS011;12448;45.532;5.290;2023-01-04T16:26:34;36.15;;;22.25;;
24325;SDS011;12448;45.532;5.290;2023-01-04T16:29:00;36.30;;;20.98;;
24325;SDS011;12448;45.532;5.290;2023-01-04T16:31:30;38.03;;;21.55;;
24325;SDS011;12448;45.532;5.290;2023-01-04T16:33:57;35.72;;;22.10;;
24325;SDS011;12448;45.532;5.290;2023-01-04T16:36:22;38.10;;;21.80;;
24325;SDS011;12448;45.532;5.290;2023-01-04T16:38:48;44.28;;;25.15;;
24325;SDS011;12448;45.532;5.290;2023-01-04T16:41:15;36.70;;;23.02;;
24325;SDS011;12448;45.532;5.290;2023-01-04T16:48:39;84.80;;;48.38;;
24325;SDS011;12448;45.532;5.290;2023-01-04T16:51:05;56.22;;;34.65;;
24325;SDS011;12448;45.532;5.290;2023-01-04T16:53:33;48.22;;;30.95;;
24325;SDS011;12448;45.532;5.290;2023-01-04T16:56:01;47.60;;;28.83;;
24325;SDS011;12448;45.532;5.290;2023-01-04T16:58:31;52.33;;;32.05;;
24325;SDS011;12448;45.532;5.290;2023-01-04T17:01:16;49.53;;;31.50;;
24325;SDS011;12448;45.532;5.290;2023-01-04T17:03:45;47.38;;;31.20;;
24325;SDS011;12448;45.532;5.290;2023-01-04T17:06:12;56.45;;;37.53;;
24325;SDS011;12448;45.532;5.290;2023-01-04T17:08:40;54.42;;;36.13;;
24325;SDS011;12448;45.532;5.290;2023-01-04T17:11:13;62.72;;;38.58;;
24325;SDS011;12448;45.532;5.290;2023-01-04T17:13:42;54.65;;;36.97;;
24325;SDS011;12448;45.532;5.290;2023-01-04T17:16:08;55.92;;;34.30;;
24325;SDS011;12448;45.532;5.290;2023-01-04T17:18:35;58.05;;;35.17;;